Time;durP1;ratioP1;P1;durP2;ratioP2;P2;SDS_P1;SDS_P2;PMS_P1;PMS_P2;Temp;Humidity;BMP_temperature;BMP_pressure;BME280_temperature;BME280_humidity;BME280_pressure;Samples;Min_cycle;Max_cycle;Signal;HPM_P1;HPM_P2
2023/06/16 00:01:23;;;;;;;5.10;4.40;;;14.70;1.90;;;;;;5014765;28;20415;-74
2023/06/16 00:03:49;;;;;;;8.97;4.50;;;14.70;1.70;;;;;;5014629;28;20896;-74
2023/06/16 00:06:16;;;;;;;4.93;4.30;;;14.70;1.80;;;;;;5014918;28;20411;-75
2023/06/16 00:08:47;;;;;;;5.20;4.70;;;14.70;1.70;;;;;;5014638;28;20777;-74
2023/06/16 00:11:15;;;;;;;4.73;4.20;;;14.80;1.60;;;;;;5014508;28;20445;-74
2023/06/16 00:13:41;;;;;;;5.70;5.10;;;14.80;1.30;;;;;;5014438;28;20889;-74
2023/06/16 00:16:19;;;;;;;6.30;5.10;;;14.90;1.40;;;;;;5014586;28;20412;-74
2023/06/16 00:18:53;;;;;;;4.40;3.90;;;14.80;1.10;;;;;;5014452;28;20408;-75
2023/06/16 00:21:25;;;;;;;5.13;4.63;;;14.80;1.10;;;;;;5014288;28;20407;-73
2023/06/16 00:23:54;;;;;;;5.10;4.60;;;14.80;1.00;;;;;;5013277;28;20430;-74
2023/06/16 00:26:20;;;;;;;5.83;4.40;;;14.80;1.10;;;;;;5014318;28;20456;-74
2023/06/16 00:28:46;;;;;;;6.27;4.07;;;14.80;1.00;;;;;;5012989;28;21018;-74
2023/06/16 00:31:11;;;;;;;4.77;4.27;;;14.90;1.20;;;;;;5013023;28;20646;-74
2023/06/16 00:33:37;;;;;;;4.70;4.20;;;14.90;1.30;;;;;;5014047;28;20177;-74
2023/06/16 00:36:02;;;;;;;5.77;4.90;;;14.90;1.10;;;;;;5014116;28;20176;-74
2023/06/16 00:38:28;;;;;;;5.40;4.10;;;14.90;1.60;;;;;;5013966;28;20256;-74
2023/06/16 00:40:54;;;;;;;5.50;4.57;;;14.90;1.70;;;;;;5013955;28;20433;-74
2023/06/16 00:43:20;;;;;;;5.37;4.20;;;14.90;1.60;;;;;;5013698;28;20408;-74
2023/06/16 00:45:47;;;;;;;5.07;4.57;;;14.90;1.90;;;;;;5013863;28;20260;-74
2023/06/16 00:48:13;;;;;;;4.83;4.37;;;14.80;2.10;;;;;;5013864;28;20205;-74
2023/06/16 00:50:39;;;;;;;8.30;5.10;;;14.90;2.20;;;;;;5013706;28;20443;-74
2023/06/16 00:53:05;;;;;;;5.60;4.90;;;14.80;2.30;;;;;;5012573;28;20177;-74
2023/06/16 00:55:30;;;;;;;7.30;4.50;;;14.90;1.90;;;;;;5014023;28;20250;-74
2023/06/16 00:57:56;;;;;;;4.37;3.97;;;14.90;1.90;;;;;;5013637;28;20174;-74
2023/06/16 01:00:22;;;;;;;4.83;4.20;;;14.80;2.00;;;;;;5013551;28;20194;-74
2023/06/16 01:02:48;;;;;;;6.33;4.20;;;14.80;2.40;;;;;;5013452;28;20799;-74
2023/06/16 01:05:17;;;;;;;5.00;3.93;;;14.80;2.30;;;;;;5013517;28;20171;-74
2023/06/16 01:08:00;;;;;;;6.53;4.67;;;14.80;2.40;;;;;;5013546;28;20456;-73
2023/06/16 01:10:43;;;;;;;3.90;3.50;;;14.80;2.70;;;;;;5013427;28;20441;-73
2023/06/16 01:13:43;;;;;;;6.70;4.37;;;14.80;2.90;;;;;;5013182;28;20409;-73
2023/06/16 01:16:10;;;;;;;5.93;4.63;;;14.80;2.50;;;;;;5013512;28;20927;-73
2023/06/16 01:18:39;;;;;;;7.80;4.43;;;14.80;2.50;;;;;;5013168;28;20420;-74
2023/06/16 01:21:41;;;;;;;5.40;4.00;;;14.80;2.30;;;;;;5013245;28;20419;-74
2023/06/16 01:24:10;;;;;;;4.77;4.30;;;14.80;2.00;;;;;;5013216;28;20413;-74
2023/06/16 01:26:39;;;;;;;4.47;4.03;;;14.80;2.10;;;;;;5013195;28;20454;-74
2023/06/16 01:29:08;;;;;;;4.40;4.00;;;14.80;2.40;;;;;;5013086;28;20948;-74
2023/06/16 01:31:36;;;;;;;5.60;4.60;;;14.80;2.40;;;;;;5012876;28;20506;-74
2023/06/16 01:34:03;;;;;;;5.00;4.20;;;14.70;2.30;;;;;;5013175;28;20415;-75
2023/06/16 01:36:31;;;;;;;4.60;4.13;;;14.70;2.40;;;;;;5012903;28;20427;-74
2023/06/16 01:38:59;;;;;;;5.50;4.90;;;14.70;2.20;;;;;;5012758;28;20444;-74
2023/06/16 01:41:26;;;;;;;5.83;4.47;;;14.70;2.10;;;;;;5012923;28;20421;-74
2023/06/16 01:43:52;;;;;;;4.80;4.40;;;14.70;2.10;;;;;;5012688;28;20791;-74
2023/06/16 01:46:18;;;;;;;4.00;3.63;;;14.60;2.10;;;;;;5012828;28;20416;-74
2023/06/16 01:48:44;;;;;;;4.70;4.30;;;14.60;2.20;;;;;;5012739;28;20222;-74
2023/06/16 01:51:10;;;;;;;6.00;4.60;;;14.60;2.50;;;;;;5012725;28;20407;-74
2023/06/16 01:53:36;;;;;;;5.53;4.47;;;14.50;3.30;;;;;;5012388;28;20419;-74
2023/06/16 01:56:01;;;;;;;4.47;4.07;;;14.40;3.70;;;;;;5012687;28;20416;-74
2023/06/16 01:58:27;;;;;;;4.50;4.10;;;14.40;3.70;;;;;;5012756;28;20181;-74
2023/06/16 02:01:04;;;;;;;5.40;4.70;;;14.30;4.30;;;;;;5012801;28;20231;-75
2023/06/16 02:03:35;;;;;;;6.27;4.67;;;14.20;4.60;;;;;;5010694;28;20670;-74
2023/06/16 02:06:07;;;;;;;5.50;5.00;;;14.10;5.20;;;;;;5012713;28;20908;-74
2023/06/16 02:08:34;;;;;;;6.40;5.13;;;14.00;5.40;;;;;;5012471;28;20427;-74
2023/06/16 02:11:01;;;;;;;5.23;4.70;;;13.90;5.70;;;;;;5013053;28;20554;-74
2023/06/16 02:13:27;;;;;;;6.17;5.30;;;13.90;6.20;;;;;;5012650;28;20909;-74
2023/06/16 02:15:55;;;;;;;6.40;4.80;;;13.80;6.40;;;;;;5012558;28;20416;-74
2023/06/16 02:18:27;;;;;;;4.63;4.10;;;13.80;6.60;;;;;;5012489;28;20407;-74
2023/06/16 02:20:53;;;;;;;4.00;3.63;;;13.80;6.70;;;;;;5012754;28;20447;-74
2023/06/16 02:23:20;;;;;;;5.97;5.17;;;13.80;6.60;;;;;;5012319;28;20458;-74
2023/06/16 02:25:46;;;;;;;5.40;4.80;;;13.80;6.70;;;;;;5011260;28;20432;-74
2023/06/16 02:28:11;;;;;;;5.40;4.33;;;13.80;6.80;;;;;;5012239;28;20956;-74
2023/06/16 02:30:37;;;;;;;5.47;4.47;;;13.80;6.80;;;;;;5012007;28;20494;-74
2023/06/16 02:33:02;;;;;;;5.27;4.73;;;13.80;6.90;;;;;;5011930;28;20172;-74
2023/06/16 02:35:28;;;;;;;6.30;5.17;;;13.80;7.10;;;;;;5012426;28;20470;-74
2023/06/16 02:37:54;;;;;;;7.67;5.17;;;13.80;7.30;;;;;;5012397;28;20633;-74
2023/06/16 02:40:20;;;;;;;6.20;5.20;;;13.80;7.40;;;;;;5012018;28;20218;-74
2023/06/16 02:42:48;;;;;;;5.80;4.53;;;13.70;7.00;;;;;;5011870;28;20423;-74
2023/06/16 02:45:13;;;;;;;6.33;5.07;;;13.70;7.20;;;;;;5012299;28;20921;-74
2023/06/16 02:47:40;;;;;;;4.63;4.00;;;13.70;7.60;;;;;;5011989;28;20446;-72
2023/06/16 02:50:07;;;;;;;4.73;4.17;;;13.70;7.80;;;;;;5011855;28;20217;-73
2023/06/16 02:52:32;;;;;;;8.87;4.60;;;13.70;7.80;;;;;;5011627;28;20407;-73
2023/06/16 02:54:58;;;;;;;4.53;3.97;;;13.70;7.20;;;;;;5011889;28;20517;-73
2023/06/16 02:57:24;;;;;;;5.93;4.63;;;13.70;7.40;;;;;;5011740;28;20168;-73
2023/06/16 02:59:50;;;;;;;5.10;3.83;;;13.60;7.40;;;;;;5011575;28;20195;-73
2023/06/16 03:02:15;;;;;;;6.23;4.20;;;13.60;7.20;;;;;;5011420;28;20509;-73
2023/06/16 03:04:41;;;;;;;7.70;5.33;;;13.60;7.00;;;;;;5011786;28;20693;-73
2023/06/16 03:07:07;;;;;;;5.80;4.50;;;13.60;6.90;;;;;;5011580;28;20239;-73
2023/06/16 03:09:32;;;;;;;5.20;4.37;;;13.60;6.40;;;;;;5011426;28;20227;-73
2023/06/16 03:11:58;;;;;;;5.80;4.60;;;13.60;6.40;;;;;;5011392;28;20584;-74
2023/06/16 03:14:25;;;;;;;6.57;5.07;;;13.60;6.90;;;;;;5011535;28;20202;-73
2023/06/16 03:16:50;;;;;;;5.53;4.93;;;13.60;7.00;;;;;;5014960;28;20171;-74
2023/06/16 03:19:18;;;;;;;5.03;4.53;;;13.50;7.60;;;;;;5015452;28;20441;-73
2023/06/16 03:21:44;;;;;;;5.00;4.00;;;13.50;8.20;;;;;;5015050;28;20617;-74
2023/06/16 03:24:13;;;;;;;6.07;4.97;;;13.40;8.80;;;;;;5015342;28;20422;-74
2023/06/16 03:26:39;;;;;;;5.73;4.77;;;13.40;9.10;;;;;;5015254;28;20461;-74
2023/06/16 03:29:05;;;;;;;7.10;4.87;;;13.40;9.10;;;;;;5015147;28;20427;-74
2023/06/16 03:31:31;;;;;;;4.97;4.00;;;13.30;9.30;;;;;;5014935;28;20422;-74
2023/06/16 03:33:57;;;;;;;5.30;4.80;;;13.30;9.30;;;;;;5015446;28;20419;-73
2023/06/16 03:36:22;;;;;;;4.93;4.43;;;13.20;9.50;;;;;;5015138;28;20623;-74
2023/06/16 03:38:48;;;;;;;6.37;4.87;;;13.20;9.80;;;;;;5015039;28;20187;-73
2023/06/16 03:41:13;;;;;;;5.40;4.30;;;13.20;9.70;;;;;;5015136;28;20273;-73
2023/06/16 03:43:39;;;;;;;6.73;4.20;;;13.20;9.90;;;;;;5014774;28;20180;-74
2023/06/16 03:46:05;;;;;;;4.67;4.23;;;13.20;10.00;;;;;;5015041;28;20168;-74
2023/06/16 03:48:30;;;;;;;5.80;5.00;;;13.20;10.10;;;;;;5014889;28;20290;-73
2023/06/16 03:50:56;;;;;;;9.93;5.00;;;13.10;10.10;;;;;;5015001;28;20622;-74
2023/06/16 03:53:22;;;;;;;5.50;4.07;;;13.10;10.20;;;;;;5015409;28;20167;-74
2023/06/16 03:55:48;;;;;;;8.53;4.87;;;13.20;10.20;;;;;;5015164;28;20785;-74
2023/06/16 03:58:15;;;;;;;5.80;4.40;;;13.20;10.20;;;;;;5016021;28;20186;-74
2023/06/16 04:00:43;;;;;;;9.23;5.00;;;13.20;10.60;;;;;;5015671;28;20192;-74
2023/06/16 04:03:10;;;;;;;4.93;4.47;;;13.20;10.70;;;;;;5014592;28;20473;-74
2023/06/16 04:05:35;;;;;;;5.87;4.50;;;13.20;10.90;;;;;;5014674;28;20417;-75
2023/06/16 04:08:01;;;;;;;7.33;5.50;;;13.20;11.10;;;;;;5014602;28;20540;-74
2023/06/16 04:10:27;;;;;;;4.90;4.30;;;13.10;11.20;;;;;;5014600;28;20245;-74
2023/06/16 04:12:53;;;;;;;5.10;4.60;;;13.10;11.00;;;;;;5014164;28;20179;-74
2023/06/16 04:15:19;;;;;;;5.20;4.47;;;13.20;11.90;;;;;;5014459;28;20407;-74
2023/06/16 04:17:45;;;;;;;7.27;4.87;;;13.20;11.20;;;;;;5013217;28;20446;-74
2023/06/16 04:20:12;;;;;;;6.47;4.83;;;13.30;10.90;;;;;;5014584;28;20430;-75
2023/06/16 04:22:38;;;;;;;6.57;5.20;;;13.30;11.50;;;;;;5014266;28;20184;-75
2023/06/16 04:25:04;;;;;;;5.57;5.07;;;13.30;10.50;;;;;;5014594;28;20442;-74
2023/06/16 04:27:32;;;;;;;6.33;5.10;;;13.40;10.80;;;;;;5012762;28;20538;-74
2023/06/16 04:29:58;;;;;;;5.67;5.07;;;13.40;10.30;;;;;;5014231;28;20503;-74
2023/06/16 04:32:23;;;;;;;6.07;4.77;;;13.50;10.20;;;;;;5013937;28;20415;-74
2023/06/16 04:34:49;;;;;;;5.00;4.50;;;13.60;10.20;;;;;;5014095;28;20423;-74
2023/06/16 04:37:16;;;;;;;6.10;5.60;;;13.60;10.10;;;;;;5014269;28;20172;-74
2023/06/16 04:39:42;;;;;;;9.50;5.83;;;13.70;9.80;;;;;;5043418;23;20294;-68
2023/06/16 04:42:09;;;;;;;6.27;5.60;;;13.80;9.40;;;;;;5047290;28;20747;-68
2023/06/16 04:44:35;;;;;;;5.70;5.00;;;13.90;9.10;;;;;;5047092;28;20419;-68
2023/06/16 04:47:01;;;;;;;6.30;4.70;;;13.90;8.90;;;;;;5042159;28;20493;-68
2023/06/16 04:49:27;;;;;;;6.80;5.70;;;14.00;8.60;;;;;;5044132;28;20489;-68
2023/06/16 04:51:53;;;;;;;10.40;5.17;;;14.00;8.60;;;;;;5062987;28;20936;-68
2023/06/16 04:54:19;;;;;;;6.70;4.90;;;14.10;8.10;;;;;;5063663;28;20186;-68
2023/06/16 04:56:45;;;;;;;5.50;4.70;;;14.20;8.70;;;;;;5063565;28;20581;-68
2023/06/16 04:59:11;;;;;;;8.07;6.50;;;14.20;8.10;;;;;;5063493;28;20187;-69
2023/06/16 05:01:37;;;;;;;7.33;5.47;;;14.30;7.80;;;;;;5063266;28;20432;-69
2023/06/16 05:04:02;;;;;;;6.00;4.80;;;14.50;7.10;;;;;;5063867;28;20429;-68
2023/06/16 05:06:28;;;;;;;8.03;5.23;;;14.60;6.70;;;;;;5062879;28;20198;-69
2023/06/16 05:08:54;;;;;;;5.90;4.80;;;14.80;6.50;;;;;;5064050;28;20319;-68
2023/06/16 05:11:20;;;;;;;8.67;6.37;;;14.90;6.10;;;;;;5063851;28;20431;-68
2023/06/16 05:13:46;;;;;;;6.30;5.03;;;15.10;6.10;;;;;;5064080;28;20177;-68
2023/06/16 05:16:11;;;;;;;7.97;5.30;;;15.30;5.30;;;;;;5063140;28;20237;-69
2023/06/16 05:18:37;;;;;;;5.60;5.10;;;15.40;4.40;;;;;;5054936;28;20202;-69
2023/06/16 05:21:03;;;;;;;5.70;5.10;;;15.60;4.50;;;;;;5058147;28;20216;-69
2023/06/16 05:23:28;;;;;;;4.83;4.33;;;15.70;4.10;;;;;;5058174;28;20185;-69
2023/06/16 05:25:54;;;;;;;6.63;5.90;;;15.90;3.80;;;;;;5058821;28;20311;-68
2023/06/16 05:28:19;;;;;;;7.37;5.73;;;16.10;3.00;;;;;;5058942;28;20205;-68
2023/06/16 05:30:45;;;;;;;5.80;5.30;;;16.20;3.00;;;;;;5060717;28;20194;-69
2023/06/16 05:33:10;;;;;;;6.80;5.63;;;16.40;2.60;;;;;;5062042;28;20177;-69
2023/06/16 05:35:37;;;;;;;6.80;5.23;;;16.60;1.70;;;;;;5058716;28;20174;-68
2023/06/16 05:38:03;;;;;;;5.40;4.83;;;16.80;1.10;;;;;;5060660;28;20720;-68
2023/06/16 05:40:28;;;;;;;5.20;4.70;;;17.20;1.00;;;;;;5057652;28;20463;-68
2023/06/16 05:42:54;;;;;;;5.70;4.57;;;17.60;1.00;;;;;;5059081;28;20178;-68
2023/06/16 05:45:20;;;;;;;6.57;5.87;;;18.90;1.00;;;;;;5059619;28;20178;-67
2023/06/16 05:47:46;;;;;;;8.37;5.70;;;19.50;1.00;;;;;;5058437;28;20198;-68
2023/06/16 05:50:11;;;;;;;6.37;5.87;;;19.60;1.00;;;;;;5056271;28;20560;-69
2023/06/16 05:52:37;;;;;;;9.60;5.50;;;19.80;1.00;;;;;;5056079;28;20417;-70
2023/06/16 05:55:03;;;;;;;6.13;5.63;;;21.10;1.00;;;;;;5056603;28;20175;-71
2023/06/16 05:57:29;;;;;;;7.33;6.60;;;22.70;1.00;;;;;;5058411;28;20462;-71
2023/06/16 05:59:55;;;;;;;6.67;6.07;;;23.90;1.00;;;;;;5058183;28;20433;-71
2023/06/16 06:02:21;;;;;;;6.47;5.97;;;25.60;1.00;;;;;;5058217;28;20417;-71
2023/06/16 06:04:48;;;;;;;6.90;6.30;;;26.30;1.00;;;;;;5058224;28;20182;-72
2023/06/16 06:07:13;;;;;;;6.53;6.03;;;27.10;1.00;;;;;;5058810;28;20305;-72
2023/06/16 06:09:39;;;;;;;44.03;12.47;;;28.90;1.00;;;;;;5059073;28;20464;-71
2023/06/16 06:12:05;;;;;;;6.80;6.20;;;30.60;1.00;;;;;;5058461;28;20202;-72
2023/06/16 06:14:31;;;;;;;8.67;7.87;;;32.30;1.00;;;;;;5058036;28;20174;-70
2023/06/16 06:16:56;;;;;;;12.30;9.80;;;33.60;1.00;;;;;;5057876;28;20500;-72
2023/06/16 06:19:23;;;;;;;8.30;7.70;;;33.80;1.00;;;;;;5055881;28;20186;-72
2023/06/16 06:21:49;;;;;;;8.57;7.80;;;34.20;1.00;;;;;;5056128;28;20321;-71
2023/06/16 06:24:15;;;;;;;9.63;8.53;;;35.30;1.00;;;;;;5057123;28;20460;-72
2023/06/16 06:26:42;;;;;;;8.00;7.40;;;36.00;1.00;;;;;;5057004;28;20198;-72
2023/06/16 06:29:08;;;;;;;8.93;8.27;;;34.60;1.00;;;;;;5056998;28;20205;-70
2023/06/16 06:31:33;;;;;;;11.03;8.70;;;35.40;1.00;;;;;;5055779;28;20413;-70
2023/06/16 06:33:59;;;;;;;8.50;7.70;;;35.70;1.00;;;;;;5055239;28;20490;-74
2023/06/16 06:36:26;;;;;;;11.93;7.93;;;36.90;1.00;;;;;;5053397;28;20183;-70
2023/06/16 06:38:52;;;;;;;11.77;9.13;;;37.00;1.00;;;;;;5053391;28;20175;-71
2023/06/16 06:41:19;;;;;;;9.80;9.00;;;36.10;1.00;;;;;;5052296;28;20540;-69
2023/06/16 06:43:45;;;;;;;9.00;8.37;;;36.10;1.00;;;;;;5053477;28;20795;-69
2023/06/16 06:46:11;;;;;;;9.13;8.30;;;37.60;1.00;;;;;;5053049;28;20420;-70
2023/06/16 06:48:36;;;;;;;7.30;6.73;;;38.40;1.00;;;;;;5052185;28;20209;-69
2023/06/16 06:51:02;;;;;;;7.73;7.13;;;38.80;1.00;;;;;;5051628;28;20221;-69
2023/06/16 06:53:28;;;;;;;7.60;7.10;;;38.00;1.00;;;;;;5051601;28;20181;-69
2023/06/16 06:55:54;;;;;;;7.80;7.20;;;37.80;1.00;;;;;;5051874;28;20198;-70
2023/06/16 06:58:19;;;;;;;8.10;7.40;;;37.30;1.00;;;;;;5051755;28;20467;-69
2023/06/16 07:00:45;;;;;;;7.57;6.97;;;37.20;1.00;;;;;;5051568;28;20202;-70
2023/06/16 07:03:12;;;;;;;7.53;7.03;;;37.80;1.00;;;;;;5052486;28;20305;-70
2023/06/16 07:05:38;;;;;;;8.10;7.50;;;37.90;1.00;;;;;;5052228;28;20179;-71
2023/06/16 07:08:04;;;;;;;8.13;6.93;;;37.90;1.00;;;;;;5053984;28;20469;-69
2023/06/16 07:10:32;;;;;;;7.90;6.73;;;36.50;1.00;;;;;;5053449;28;20190;-69
2023/06/16 07:12:58;;;;;;;6.80;6.30;;;36.10;1.00;;;;;;5051377;28;20413;-70
2023/06/16 07:15:24;;;;;;;6.60;6.10;;;37.50;1.00;;;;;;5050390;28;20520;-70
2023/06/16 07:17:49;;;;;;;7.03;6.47;;;37.30;1.00;;;;;;5051599;28;20457;-71
2023/06/16 07:20:15;;;;;;;6.53;5.93;;;36.50;1.00;;;;;;5051909;28;20546;-71
2023/06/16 07:22:42;;;;;;;7.10;6.50;;;37.10;1.00;;;;;;5051592;28;20186;-72
2023/06/16 07:25:08;;;;;;;7.23;6.70;;;37.50;1.00;;;;;;5050447;28;20307;-73
2023/06/16 07:27:34;;;;;;;7.03;6.53;;;36.90;1.00;;;;;;5051560;28;20551;-73
2023/06/16 07:30:00;;;;;;;6.60;6.10;;;36.70;1.00;;;;;;5051742;28;20545;-72
2023/06/16 07:32:25;;;;;;;42.30;11.87;;;37.70;1.00;;;;;;5050038;28;20274;-69
2023/06/16 07:34:52;;;;;;;10.03;7.67;;;38.40;1.00;;;;;;5051287;28;20456;-69
2023/06/16 07:37:18;;;;;;;7.47;6.87;;;38.80;1.00;;;;;;5051367;28;20205;-71
2023/06/16 07:39:44;;;;;;;11.73;7.60;;;39.70;1.00;;;;;;5051028;28;20492;-71
2023/06/16 07:42:09;;;;;;;8.10;7.30;;;39.10;1.00;;;;;;5051259;28;20662;-71
2023/06/16 07:44:35;;;;;;;7.80;7.20;;;39.70;1.00;;;;;;5049697;28;20457;-71
2023/06/16 07:47:00;;;;;;;7.00;6.60;;;40.10;1.00;;;;;;5051108;28;20652;-71
2023/06/16 07:49:27;;;;;;;8.07;7.47;;;39.60;1.00;;;;;;5049837;28;20579;-71
2023/06/16 07:51:52;;;;;;;7.50;6.43;;;38.70;1.00;;;;;;5051104;28;20209;-71
2023/06/16 07:54:18;;;;;;;7.63;7.13;;;38.00;1.00;;;;;;5051454;28;20417;-75
2023/06/16 07:56:44;;;;;;;6.60;6.20;;;39.30;1.00;;;;;;5051956;28;20636;-72
2023/06/16 07:59:09;;;;;;;5.93;5.53;;;38.50;1.00;;;;;;5049822;28;20328;-70
2023/06/16 08:01:35;;;;;;;6.77;6.30;;;39.40;1.00;;;;;;5052323;28;20194;-71
2023/06/16 08:04:00;;;;;;;7.10;6.63;;;39.30;1.00;;;;;;5055194;28;20174;-70
2023/06/16 08:06:27;;;;;;;7.57;7.00;;;38.60;1.00;;;;;;5055447;28;20179;-70
2023/06/16 08:08:53;;;;;;;7.20;6.70;;;39.10;1.00;;;;;;5055587;28;20181;-69
2023/06/16 08:11:19;;;;;;;7.13;6.53;;;38.60;1.00;;;;;;5054898;28;20507;-71
2023/06/16 08:13:45;;;;;;;7.87;7.37;;;38.80;1.00;;;;;;5053908;28;20205;-69
2023/06/16 08:16:11;;;;;;;7.07;6.47;;;38.10;1.00;;;;;;5054721;28;20902;-71
2023/06/16 08:18:38;;;;;;;6.97;6.47;;;38.10;1.00;;;;;;5054609;28;20200;-70
2023/06/16 08:21:04;;;;;;;8.90;6.20;;;38.70;1.00;;;;;;5054600;28;20443;-72
2023/06/16 08:23:29;;;;;;;6.20;5.60;;;38.90;1.00;;;;;;5054420;28;20417;-71
2023/06/16 08:25:55;;;;;;;6.37;5.77;;;39.10;1.00;;;;;;5053538;28;20546;-71
2023/06/16 08:28:21;;;;;;;6.37;5.97;;;39.70;1.00;;;;;;5054472;28;20293;-70
2023/06/16 08:30:46;;;;;;;6.73;6.23;;;38.80;1.00;;;;;;5054650;28;20186;-71
2023/06/16 08:33:12;;;;;;;76.47;22.10;;;39.50;1.00;;;;;;5054180;28;20444;-72
2023/06/16 08:35:37;;;;;;;11.33;7.50;;;40.60;1.00;;;;;;5054568;28;20174;-71
2023/06/16 08:38:03;;;;;;;6.83;6.30;;;40.10;1.00;;;;;;5054356;28;20189;-71
2023/06/16 08:40:29;;;;;;;7.60;7.00;;;39.90;1.00;;;;;;5054190;28;20213;-70
2023/06/16 08:42:55;;;;;;;6.30;5.90;;;38.40;1.00;;;;;;5054050;28;20677;-72
2023/06/16 08:45:22;;;;;;;6.90;6.30;;;37.60;1.00;;;;;;5053151;28;20179;-71
2023/06/16 08:47:48;;;;;;;6.80;6.40;;;39.10;1.00;;;;;;5054701;28;20464;-72
2023/06/16 08:50:14;;;;;;;6.00;5.60;;;38.70;1.00;;;;;;5054012;28;20439;-71
2023/06/16 08:52:42;;;;;;;6.30;5.90;;;39.00;1.00;;;;;;5053678;28;20636;-72
2023/06/16 08:55:13;;;;;;;6.73;6.07;;;38.30;1.00;;;;;;5053977;28;20413;-71
2023/06/16 08:57:51;;;;;;;7.40;6.90;;;39.40;1.00;;;;;;5054147;28;20989;-72
2023/06/16 09:00:18;;;;;;;6.90;6.30;;;39.90;1.00;;;;;;5053908;28;20429;-72
2023/06/16 09:02:48;;;;;;;7.30;6.80;;;39.90;1.00;;;;;;5053582;28;20425;-71
2023/06/16 09:05:15;;;;;;;8.93;6.77;;;41.40;1.00;;;;;;5053687;28;20420;-71
2023/06/16 09:07:41;;;;;;;6.50;6.10;;;41.10;1.00;;;;;;5053684;28;20467;-71
2023/06/16 09:10:10;;;;;;;5.90;5.40;;;41.30;1.00;;;;;;5053570;28;20433;-71
2023/06/16 09:12:36;;;;;;;7.60;7.03;;;40.40;1.00;;;;;;5052545;28;20592;-71
2023/06/16 09:15:06;;;;;;;6.97;6.47;;;41.00;1.00;;;;;;5052615;28;20532;-72
2023/06/16 09:17:33;;;;;;;29.93;10.80;;;39.10;1.00;;;;;;5053415;28;20457;-71
2023/06/16 09:20:00;;;;;;;9.13;7.37;;;35.90;1.00;;;;;;5054673;28;20441;-71
2023/06/16 09:22:29;;;;;;;19.40;10.13;;;33.20;1.00;;;;;;5053688;28;20405;-71
2023/06/16 09:25:01;;;;;;;13.60;8.83;;;31.50;1.00;;;;;;5053697;28;20780;-71
2023/06/16 09:27:46;;;;;;;7.17;6.57;;;30.70;1.00;;;;;;5053608;28;20468;-71
2023/06/16 09:30:14;;;;;;;7.67;6.97;;;29.40;1.00;;;;;;5048879;28;21012;-75
2023/06/16 09:32:41;;;;;;;6.57;6.07;;;28.80;1.00;;;;;;5036706;28;20418;-70
2023/06/16 09:35:24;;;;;;;8.00;7.30;;;28.40;1.00;;;;;;5036091;28;20461;-70
2023/06/16 09:37:51;;;;;;;8.03;7.27;;;28.50;1.00;;;;;;5045371;28;20520;-70
2023/06/16 09:40:19;;;;;;;7.07;6.47;;;28.30;1.00;;;;;;5033592;28;20935;-69
2023/06/16 09:42:50;;;;;;;7.63;6.90;;;28.40;1.00;;;;;;5033949;28;20497;-70
2023/06/16 09:45:16;;;;;;;7.63;7.07;;;28.40;1.00;;;;;;5033133;28;20430;-70
2023/06/16 09:47:47;;;;;;;5.80;5.30;;;28.20;1.00;;;;;;5033994;28;20461;-70
2023/06/16 09:50:14;;;;;;;8.07;7.27;;;28.30;1.00;;;;;;5033857;28;20445;-69
2023/06/16 09:52:42;;;;;;;7.93;7.13;;;28.20;1.00;;;;;;5034012;28;20472;-70
2023/06/16 09:55:08;;;;;;;7.30;6.70;;;27.80;1.00;;;;;;5046365;28;20421;-70
2023/06/16 09:57:33;;;;;;;6.77;6.17;;;27.20;1.00;;;;;;5053933;28;20826;-70
2023/06/16 09:59:59;;;;;;;6.07;5.67;;;27.00;1.00;;;;;;5052840;28;20558;-70
2023/06/16 10:02:27;;;;;;;7.23;6.67;;;26.60;1.00;;;;;;5052353;28;20206;-70
2023/06/16 10:04:57;;;;;;;7.33;6.40;;;26.20;1.00;;;;;;5051506;28;20194;-70
2023/06/16 10:07:24;;;;;;;7.17;6.57;;;26.00;1.00;;;;;;5053039;28;20682;-70
2023/06/16 10:09:51;;;;;;;8.27;7.67;;;26.20;1.00;;;;;;5052523;28;20843;-70
2023/06/16 10:12:18;;;;;;;7.23;6.67;;;25.80;1.00;;;;;;5052495;28;20413;-70
2023/06/16 10:14:45;;;;;;;6.30;5.90;;;25.90;1.00;;;;;;5058060;28;20490;-70
2023/06/16 10:17:13;;;;;;;6.63;6.20;;;25.70;1.00;;;;;;5057496;28;20437;-70
2023/06/16 10:19:44;;;;;;;6.40;5.60;;;25.90;1.00;;;;;;5057372;28;20527;-70
2023/06/16 10:22:11;;;;;;;6.20;5.80;;;26.20;1.00;;;;;;5054065;28;20787;-70
2023/06/16 10:24:39;;;;;;;10.00;7.40;;;26.40;1.00;;;;;;5053529;28;20906;-70
2023/06/16 10:27:06;;;;;;;6.67;6.07;;;26.70;1.00;;;;;;5054325;28;20850;-70
2023/06/16 10:29:32;;;;;;;6.70;6.20;;;26.70;1.00;;;;;;5052893;28;20499;-69
2023/06/16 10:32:07;;;;;;;8.23;6.50;;;26.80;1.00;;;;;;5052918;28;20421;-69
2023/06/16 10:34:56;;;;;;;6.90;6.40;;;26.80;1.00;;;;;;5052556;28;20416;-70
2023/06/16 10:37:23;;;;;;;6.50;6.00;;;26.80;1.00;;;;;;5051125;28;20405;-69
2023/06/16 10:39:49;;;;;;;6.63;6.17;;;26.40;1.00;;;;;;5067326;23;20828;-71
2023/06/16 10:42:15;;;;;;;7.40;6.80;;;26.10;1.00;;;;;;5011349;28;20426;-71
2023/06/16 10:44:43;;;;;;;6.60;6.00;;;26.00;1.00;;;;;;5011725;28;20176;-71
2023/06/16 10:47:09;;;;;;;5.87;5.37;;;25.70;1.00;;;;;;5011314;28;20496;-71
2023/06/16 10:49:58;;;;;;;6.70;6.20;;;25.50;1.00;;;;;;5011387;28;20731;-71
2023/06/16 10:52:52;;;;;;;5.90;5.40;;;25.60;1.00;;;;;;5011548;28;20274;-71
2023/06/16 10:55:35;;;;;;;6.47;5.87;;;25.90;1.00;;;;;;5006199;28;20426;-71
2023/06/16 10:58:16;;;;;;;7.90;7.10;;;26.40;1.00;;;;;;5011872;28;20930;-72
2023/06/16 11:00:42;;;;;;;7.23;6.53;;;26.80;1.00;;;;;;5011856;28;20441;-71
2023/06/16 11:03:08;;;;;;;5.63;5.13;;;26.80;1.00;;;;;;5011609;28;20419;-71
2023/06/16 11:05:41;;;;;;;6.10;5.60;;;27.10;1.00;;;;;;5011671;28;20415;-71
2023/06/16 11:08:08;;;;;;;6.27;5.77;;;27.30;1.00;;;;;;5011860;28;20622;-71
2023/06/16 11:10:51;;;;;;;7.13;6.50;;;27.60;1.00;;;;;;5011527;28;20454;-71
2023/06/16 11:13:36;;;;;;;7.40;6.90;;;27.50;1.00;;;;;;5011576;28;20477;-71
2023/06/16 11:16:03;;;;;;;7.80;6.77;;;27.10;1.00;;;;;;5011785;28;20425;-71
2023/06/16 11:18:31;;;;;;;7.90;7.10;;;27.30;1.00;;;;;;5011651;28;20407;-71
2023/06/16 11:21:01;;;;;;;7.30;6.70;;;27.30;1.00;;;;;;5004418;28;20738;-71
2023/06/16 11:23:28;;;;;;;7.10;6.50;;;27.20;1.00;;;;;;5010705;28;20464;-71
2023/06/16 11:26:06;;;;;;;8.47;7.63;;;27.60;1.00;;;;;;5025870;28;20970;-71
2023/06/16 11:28:33;;;;;;;6.43;5.83;;;28.10;1.00;;;;;;5022659;28;20831;-71
2023/06/16 11:31:00;;;;;;;6.77;6.10;;;28.60;1.00;;;;;;5031144;28;21025;-71
2023/06/16 11:33:26;;;;;;;5.87;5.47;;;28.50;1.00;;;;;;5030730;28;20468;-70
2023/06/16 11:35:51;;;;;;;7.47;6.87;;;27.90;1.00;;;;;;5031381;28;20906;-70
2023/06/16 11:38:25;;;;;;;6.13;5.63;;;27.40;1.00;;;;;;5023988;28;20434;-70
2023/06/16 11:40:50;;;;;;;7.83;6.83;;;26.60;1.00;;;;;;5019969;28;20211;-70
2023/06/16 11:43:18;;;;;;;7.17;6.47;;;26.10;1.00;;;;;;5034593;28;20414;-70
2023/06/16 11:45:44;;;;;;;7.63;6.90;;;26.20;1.00;;;;;;5034897;28;20447;-70
2023/06/16 11:48:09;;;;;;;6.97;6.40;;;26.40;1.00;;;;;;5034675;28;20469;-70
2023/06/16 11:50:36;;;;;;;6.77;6.17;;;26.80;1.00;;;;;;5033475;28;20939;-70
2023/06/16 11:53:02;;;;;;;6.23;5.63;;;27.20;1.00;;;;;;5034427;28;20187;-71
2023/06/16 11:55:28;;;;;;;8.80;6.03;;;27.60;1.00;;;;;;5034596;28;20414;-69
2023/06/16 11:57:53;;;;;;;6.10;5.60;;;27.50;1.00;;;;;;5034699;28;20175;-72
2023/06/16 12:00:21;;;;;;;6.40;5.80;;;27.00;1.00;;;;;;5033024;28;20199;-71
2023/06/16 12:02:48;;;;;;;10.10;6.20;;;26.60;1.00;;;;;;5034061;28;20175;-71
2023/06/16 12:05:23;;;;;;;7.23;6.23;;;26.40;1.00;;;;;;5034541;28;20422;-71
2023/06/16 12:07:50;;;;;;;8.73;6.17;;;26.50;1.00;;;;;;5034308;28;21207;-71
2023/06/16 12:10:16;;;;;;;6.33;5.83;;;26.60;1.00;;;;;;5034128;28;20439;-71
2023/06/16 12:12:42;;;;;;;6.13;5.63;;;26.40;1.00;;;;;;5033867;28;20476;-71
2023/06/16 12:15:09;;;;;;;6.20;5.80;;;26.40;1.00;;;;;;5017574;28;20707;-71
2023/06/16 12:17:34;;;;;;;7.90;7.20;;;26.20;1.00;;;;;;5022860;28;20491;-69
2023/06/16 12:20:05;;;;;;;12.63;8.20;;;26.20;1.00;;;;;;5034195;28;20442;-70
2023/06/16 12:22:38;;;;;;;10.17;6.50;;;26.50;1.00;;;;;;5033930;28;20163;-70
2023/06/16 12:25:26;;;;;;;7.90;6.60;;;26.70;1.00;;;;;;5034146;28;20414;-72
2023/06/16 12:27:56;;;;;;;6.10;5.70;;;26.50;1.00;;;;;;5034139;28;20561;-70
2023/06/16 12:30:32;;;;;;;6.00;5.60;;;26.70;1.00;;;;;;5033929;28;20430;-70
2023/06/16 12:32:57;;;;;;;6.60;6.00;;;27.00;1.00;;;;;;5033914;28;20453;-70
2023/06/16 12:35:26;;;;;;;6.80;6.10;;;27.10;1.00;;;;;;5033940;28;20445;-71
2023/06/16 12:37:57;;;;;;;6.87;6.37;;;27.50;1.00;;;;;;5033718;28;20636;-71
2023/06/16 12:40:30;;;;;;;11.60;7.37;;;27.50;1.00;;;;;;5033849;28;20446;-71
2023/06/16 12:42:55;;;;;;;7.37;6.63;;;27.60;1.00;;;;;;5033573;28;20422;-70
2023/06/16 12:45:22;;;;;;;9.23;6.30;;;27.40;1.00;;;;;;5033954;28;20524;-71
2023/06/16 12:47:47;;;;;;;6.77;6.10;;;27.60;1.00;;;;;;5033604;28;20549;-71
2023/06/16 12:50:13;;;;;;;6.10;5.70;;;27.80;1.00;;;;;;5033872;28;20249;-70
2023/06/16 12:52:38;;;;;;;6.97;6.20;;;27.90;1.00;;;;;;5033530;28;20182;-71
2023/06/16 12:55:04;;;;;;;7.50;6.90;;;28.20;1.00;;;;;;5033985;28;20266;-74
2023/06/16 12:57:30;;;;;;;10.60;5.93;;;28.10;1.00;;;;;;5032129;28;20186;-70